Time;durP1;ratioP1;P1;durP2;ratioP2;P2;SDS_P1;SDS_P2;PMS_P1;PMS_P2;Temp;Humidity;BMP_temperature;BMP_pressure;BME280_temperature;BME280_humidity;BME280_pressure;Samples;Min_cycle;Max_cycle;Signal;HPM_P1;HPM_P2
2021/12/23 00:03:41;;;;;;;96.60;32.70;;;;;;;-2.97;100.00;101473.94;5050048;58;1145302;-72
2021/12/23 00:08:46;;;;;;;119.60;37.83;;;;;;;-2.91;100.00;101471.31;4968070;58;1143156;-72
2021/12/23 00:14:05;;;;;;;136.40;38.17;;;;;;;-2.84;100.00;101459.17;4957996;59;1145371;-72
2021/12/23 00:19:05;;;;;;;84.95;30.20;;;;;;;-2.78;100.00;101461.72;5034181;58;1145404;-72
2021/12/23 00:24:07;;;;;;;68.50;26.97;;;;;;;-2.71;100.00;101460.78;5041740;58;1143191;-72
2021/12/23 00:29:13;;;;;;;53.33;21.17;;;;;;;-2.75;100.00;101453.91;4957915;59;1143273;-72
2021/12/23 00:34:19;;;;;;;53.67;24.93;;;;;;;-2.90;99.99;101451.44;4961119;58;1143158;-72
2021/12/23 00:39:26;;;;;;;69.13;24.37;;;;;;;-3.05;100.00;101445.08;5042268;58;1139336;-72
2021/12/23 00:44:33;;;;;;;64.00;27.90;;;;;;;-3.11;100.00;101435.66;4957796;59;1141086;-72
2021/12/23 00:49:39;;;;;;;76.13;32.40;;;;;;;-3.20;100.00;101433.97;4961046;58;1141154;-72
2021/12/23 00:54:45;;;;;;;79.50;28.90;;;;;;;-3.25;100.00;101423.25;5041944;58;1141248;-72
2021/12/23 00:59:50;;;;;;;78.33;31.67;;;;;;;-3.23;100.00;101406.00;4957864;59;1141141;-72
2021/12/23 01:04:56;;;;;;;71.60;25.80;;;;;;;-3.22;100.00;101405.12;4961026;59;1141375;-72
2021/12/23 01:10:02;;;;;;;67.53;28.97;;;;;;;-3.25;100.00;101402.13;5052420;58;1141122;-71
2021/12/23 01:15:39;;;;;;;59.97;24.57;;;;;;;-3.27;100.00;101402.56;5059451;57;1141309;-72
2021/12/23 01:20:30;;;;;;;55.40;25.37;;;;;;;-3.32;100.00;101405.61;5057524;57;1141153;-72
2021/12/23 01:25:40;;;;;;;50.47;23.03;;;;;;;-3.37;100.00;101394.45;5059053;57;1141127;-72
2021/12/23 01:30:46;;;;;;;51.23;22.07;;;;;;;-3.44;100.00;101389.31;5059414;57;1141186;-72
2021/12/23 01:35:52;;;;;;;57.63;23.50;;;;;;;-3.49;100.00;101389.33;5027843;58;1141261;-72
2021/12/23 01:40:57;;;;;;;56.60;22.73;;;;;;;-3.58;100.00;101383.80;5028050;58;1141366;-72
2021/12/23 01:46:04;;;;;;;50.97;21.77;;;;;;;-3.63;100.00;101377.78;4944293;59;1141131;-72
2021/12/23 01:51:10;;;;;;;60.60;25.63;;;;;;;-3.72;100.00;101366.66;4973234;58;1139204;-72
2021/12/23 01:56:17;;;;;;;60.17;24.50;;;;;;;-3.75;100.00;101361.49;4972959;58;1139208;-72
2021/12/23 02:01:24;;;;;;;66.60;26.17;;;;;;;-3.73;100.00;101354.59;4973457;58;1143380;-73
2021/12/23 02:06:29;;;;;;;63.60;24.53;;;;;;;-3.80;100.00;101345.14;4973628;58;1143474;-72
2021/12/23 02:11:35;;;;;;;52.90;22.23;;;;;;;-3.81;100.00;101336.53;4960536;58;1143377;-72
2021/12/23 02:16:41;;;;;;;59.43;26.47;;;;;;;-3.82;100.00;101328.81;4957662;59;1143230;-72
2021/12/23 02:21:49;;;;;;;70.53;25.27;;;;;;;-3.81;100.00;101326.19;5041874;58;1143122;-72
2021/12/23 02:26:54;;;;;;;62.23;25.80;;;;;;;-3.80;100.00;101320.16;5041854;58;1143923;-72
2021/12/23 02:32:00;;;;;;;68.40;26.20;;;;;;;-3.82;100.00;101319.34;5041855;58;1143241;-72
2021/12/23 02:37:05;;;;;;;56.43;23.93;;;;;;;-3.87;100.00;101312.03;5041806;58;1143237;-72
2021/12/23 02:42:11;;;;;;;49.90;21.00;;;;;;;-3.92;100.00;101306.89;5041958;58;1143555;-72
2021/12/23 02:47:18;;;;;;;50.70;19.60;;;;;;;-3.96;100.00;101296.14;5031404;58;1143185;-72
2021/12/23 02:52:25;;;;;;;56.77;23.73;;;;;;;-3.97;100.00;101294.42;5031258;58;1143331;-72
2021/12/23 02:57:34;;;;;;;63.97;25.10;;;;;;;-3.97;100.00;101284.52;4947143;59;1143276;-72
2021/12/23 03:02:42;;;;;;;58.53;24.83;;;;;;;-3.96;100.00;101275.90;4950028;59;1143202;-72
2021/12/23 03:07:48;;;;;;;63.77;26.27;;;;;;;-3.93;100.00;101268.13;5031973;58;1143231;-73
2021/12/23 03:12:54;;;;;;;56.43;21.47;;;;;;;-3.85;100.00;101249.58;4951727;58;1143234;-72
2021/12/23 03:18:00;;;;;;;60.37;25.10;;;;;;;-3.88;100.00;101244.43;5047750;58;1143220;-72
2021/12/23 03:23:06;;;;;;;60.60;25.17;;;;;;;-3.93;100.00;101232.82;5047692;58;1143173;-72
2021/12/23 03:28:11;;;;;;;58.87;23.40;;;;;;;-3.93;100.00;101234.11;5000603;58;1143194;-72
2021/12/23 03:33:18;;;;;;;52.33;18.00;;;;;;;-3.97;100.00;101227.67;5000434;58;1143451;-72
2021/12/23 03:38:27;;;;;;;53.85;22.52;;;;;;;-4.04;100.00;101222.14;5000119;58;1143211;-72
2021/12/23 03:43:33;;;;;;;55.50;23.00;;;;;;;-4.10;100.00;101222.17;5000153;58;1143166;-72
2021/12/23 03:48:39;;;;;;;156.60;55.30;;;;;;;-4.13;100.00;101214.47;5000420;58;1143450;-72
2021/12/23 03:53:45;;;;;;;61.97;25.07;;;;;;;-4.19;100.00;101208.04;5000449;58;1145407;-72
2021/12/23 03:58:54;;;;;;;141.17;39.03;;;;;;;-4.20;100.00;101208.47;5000314;58;1143427;-73
2021/12/23 04:04:00;;;;;;;140.63;37.67;;;;;;;-4.23;100.00;101199.45;5000182;58;1145615;-72
2021/12/23 04:09:06;;;;;;;208.90;46.40;;;;;;;-4.19;100.00;101189.96;5002095;58;1145372;-72
2021/12/23 04:14:12;;;;;;;175.90;45.03;;;;;;;-4.17;100.00;101184.36;4985290;58;1145310;-72
2021/12/23 04:19:18;;;;;;;170.87;44.87;;;;;;;-4.15;100.00;101169.71;4984208;58;1145631;-72
2021/12/23 04:24:25;;;;;;;213.25;53.20;;;;;;;-4.11;100.00;101158.03;4984143;57;1145451;-72
2021/12/23 04:29:31;;;;;;;179.50;47.37;;;;;;;-4.11;100.00;101148.99;4984541;58;1145282;-72
2021/12/23 04:34:36;;;;;;;89.13;31.27;;;;;;;-4.07;100.00;101146.81;4984364;58;1145470;-72
2021/12/23 04:39:42;;;;;;;264.57;69.83;;;;;;;-4.03;100.00;101129.14;4984300;58;1143201;-72
2021/12/23 04:44:48;;;;;;;118.73;41.13;;;;;;;-3.99;100.00;101115.77;4984501;58;1145397;-72
2021/12/23 04:49:54;;;;;;;94.30;36.20;;;;;;;-3.85;100.00;101099.70;4993270;58;1145294;-72
2021/12/23 04:55:00;;;;;;;93.53;35.93;;;;;;;-3.73;100.00;101093.55;4993360;58;1143236;-71
2021/12/23 05:00:11;;;;;;;105.30;38.67;;;;;;;-3.63;100.00;101086.11;4993281;58;1143655;-72
2021/12/23 05:05:18;;;;;;;80.63;32.83;;;;;;;-3.58;100.00;101082.62;4993342;58;1145334;-72
2021/12/23 05:10:25;;;;;;;94.67;35.27;;;;;;;-3.52;100.00;101076.97;4992821;58;1141074;-72
2021/12/23 05:15:31;;;;;;;604.53;215.73;;;;;;;-3.51;100.00;101064.47;5064791;58;1141192;-72
2021/12/23 05:20:38;;;;;;;247.87;83.10;;;;;;;-3.53;100.00;101055.87;5064308;58;1145457;-72
2021/12/23 05:25:44;;;;;;;94.67;35.53;;;;;;;-3.52;100.00;101056.29;5065788;58;1143283;-72
2021/12/23 05:30:50;;;;;;;187.40;49.77;;;;;;;-3.52;100.00;101051.98;5065812;58;1141101;-71
2021/12/23 05:35:56;;;;;;;124.10;40.07;;;;;;;-3.49;100.00;101042.86;4980763;58;1143212;-72
2021/12/23 05:41:02;;;;;;;133.03;39.80;;;;;;;-3.47;100.00;101032.08;5066718;58;1143347;-72
2021/12/23 05:46:08;;;;;;;80.33;31.07;;;;;;;-3.43;100.00;101026.44;4978506;59;1143291;-72
2021/12/23 05:51:14;;;;;;;82.77;29.57;;;;;;;-3.49;99.96;101020.03;4978660;59;1141200;-71
2021/12/23 05:56:20;;;;;;;95.97;34.07;;;;;;;-3.61;99.53;101017.16;4978641;59;1139056;-72
2021/12/23 06:01:26;;;;;;;114.73;40.00;;;;;;;-3.69;99.62;101018.56;4978543;59;1139022;-71
2021/12/23 06:06:32;;;;;;;108.23;35.83;;;;;;;-3.67;99.97;101018.11;4978565;59;1141351;-71
2021/12/23 06:11:38;;;;;;;97.27;35.33;;;;;;;-3.67;100.00;101006.48;5018422;58;1141477;-72
2021/12/23 06:16:44;;;;;;;74.60;29.20;;;;;;;-3.65;99.85;101001.27;5046127;58;1141154;-71
2021/12/23 06:21:50;;;;;;;92.07;34.90;;;;;;;-3.73;99.40;100991.47;4961574;59;1139356;-72
2021/12/23 06:26:56;;;;;;;100.07;33.97;;;;;;;-3.79;99.49;100979.46;4966170;57;1139180;-72
2021/12/23 06:32:02;;;;;;;75.80;31.40;;;;;;;-3.79;99.53;100980.75;5058104;57;1141084;-72
2021/12/23 06:37:08;;;;;;;68.47;26.53;;;;;;;-3.86;99.17;100975.26;5058136;57;1137345;-72
2021/12/23 06:42:16;;;;;;;62.37;26.80;;;;;;;-3.96;99.11;100974.92;5020326;57;1137175;-71
2021/12/23 06:47:21;;;;;;;71.07;28.63;;;;;;;-3.94;99.68;100968.87;5058093;57;1141136;-72
2021/12/23 06:52:27;;;;;;;101.13;38.53;;;;;;;-3.96;99.39;100957.69;5057872;57;1141046;-72
2021/12/23 06:57:33;;;;;;;95.30;38.20;;;;;;;-4.00;99.39;100957.33;5057621;57;1143415;-72
2021/12/23 07:02:40;;;;;;;107.77;40.33;;;;;;;-4.02;99.45;100941.42;5057539;57;1141164;-71
2021/12/23 07:08:08;;;;;;;103.43;38.17;;;;;;;-4.07;99.47;100933.72;5029131;58;1143714;-72
2021/12/23 07:13:06;;;;;;;76.37;30.43;;;;;;;-4.07;99.62;100936.73;5007406;58;1143161;-71
2021/12/23 07:18:12;;;;;;;80.00;31.48;;;;;;;-4.08;99.73;100938.89;4977678;58;1141129;-72
2021/12/23 07:23:18;;;;;;;76.13;30.13;;;;;;;-4.09;99.80;100917.38;4944216;60;1141413;-72
2021/12/23 07:28:24;;;;;;;78.05;31.02;;;;;;;-4.07;100.00;100927.69;4992603;56;1140999;-72
2021/12/23 07:33:29;;;;;;;84.63;34.10;;;;;;;-4.03;100.00;100928.94;5021124;57;1143163;-72
2021/12/23 07:38:36;;;;;;;92.33;37.53;;;;;;;-4.02;100.00;100916.45;5022913;59;1143145;-71
2021/12/23 07:43:55;;;;;;;104.17;42.30;;;;;;;-3.87;100.00;100914.55;5070444;57;1143086;-73
2021/12/23 07:48:50;;;;;;;141.50;48.93;;;;;;;-3.80;100.00;100900.66;5130007;57;1145410;-71
2021/12/23 07:53:57;;;;;;;112.40;37.90;;;;;;;-3.67;100.00;100907.41;5062166;58;1145456;-71
2021/12/23 07:59:03;;;;;;;108.13;43.43;;;;;;;-3.53;100.00;100907.22;5141243;57;1145561;-70
2021/12/23 08:04:08;;;;;;;107.63;39.83;;;;;;;-3.41;100.00;100922.55;5141194;57;1145223;-71
2021/12/23 08:09:14;;;;;;;409.67;109.72;;;;;;;-3.36;100.00;100903.48;5126127;57;1145280;-70
2021/12/23 08:14:20;;;;;;;204.87;68.47;;;;;;;-3.38;100.00;100887.61;5054738;57;1147565;-71
2021/12/23 08:19:26;;;;;;;96.20;43.60;;;;;;;-3.35;100.00;100879.34;5038115;58;1145330;-70
2021/12/23 08:24:32;;;;;;;85.20;37.17;;;;;;;-3.42;100.00;100871.27;4992801;57;1143226;-72
2021/12/23 08:29:38;;;;;;;75.40;30.05;;;;;;;-3.56;99.99;100862.44;5000111;57;1143228;-72
2021/12/23 08:34:44;;;;;;;87.78;33.80;;;;;;;-3.61;100.00;100861.63;4965846;58;1141121;-71
2021/12/23 08:39:51;;;;;;;89.20;37.80;;;;;;;-3.55;100.00;100860.27;4989448;58;1143116;-71
2021/12/23 08:44:57;;;;;;;118.80;47.07;;;;;;;-3.48;100.00;100844.64;5098474;57;1143330;-71
2021/12/23 08:50:06;;;;;;;255.40;84.50;;;;;;;-3.36;100.00;100831.08;5098398;57;1145384;-71
2021/12/23 08:55:14;;;;;;;259.97;92.83;;;;;;;-3.21;100.00;100817.91;5095244;57;1145342;-71
2021/12/23 09:00:21;;;;;;;144.13;67.07;;;;;;;-3.10;100.00;100802.22;4989704;57;1145739;-72
2021/12/23 09:05:28;;;;;;;122.77;42.93;;;;;;;-3.07;100.00;100780.19;5017054;57;1145353;-71
2021/12/23 09:10:36;;;;;;;129.50;40.80;;;;;;;-3.06;100.00;100774.14;5045730;57;1145215;-72
2021/12/23 09:15:42;;;;;;;64.03;29.10;;;;;;;-3.06;100.00;100778.45;5038953;57;1145249;-71
2021/12/23 09:20:49;;;;;;;73.17;31.70;;;;;;;-3.09;100.00;100779.80;5027718;58;1143093;-71
2021/12/23 09:25:55;;;;;;;88.60;36.53;;;;;;;-3.13;100.00;100764.77;5027765;58;1143246;-71
2021/12/23 09:36:25;;;;;;;68.43;28.47;;;;;;;-3.02;100.00;100746.45;4969302;57;1140565;-71
2021/12/23 09:41:40;;;;;;;77.57;32.50;;;;;;;-3.04;100.00;100729.66;4948479;58;1141186;-72
2021/12/23 09:46:46;;;;;;;51.73;22.00;;;;;;;-3.04;100.00;100715.87;4948370;58;1141154;-72
2021/12/23 09:51:52;;;;;;;78.40;31.97;;;;;;;-3.03;99.84;100702.05;4948313;58;1141301;-71
2021/12/23 09:56:58;;;;;;;110.73;41.30;;;;;;;-3.05;100.00;100695.61;4948272;58;1138992;-72
2021/12/23 10:02:04;;;;;;;79.17;28.93;;;;;;;-3.01;100.00;100674.42;4944039;60;1143258;-72
2021/12/23 10:07:10;;;;;;;66.87;24.40;;;;;;;-2.93;99.54;100662.20;4948212;58;1141103;-72
2021/12/23 10:38:47;;;;;;;91.37;37.50;;;;;;;-2.72;98.82;100611.70;5021322;57;1141312;-72
2021/12/23 10:44:03;;;;;;;94.35;30.70;;;;;;;-2.64;98.43;100592.55;5088163;57;1141047;-71
2021/12/23 10:49:29;;;;;;;84.90;32.37;;;;;;;-2.60;97.33;100580.39;5010438;57;1141362;-72
2021/12/23 10:59:50;;;;;;;84.77;32.10;;;;;;;-2.53;97.32;100545.69;4990231;57;1141320;-72
2021/12/23 11:05:16;;;;;;;81.70;31.90;;;;;;;-2.44;97.39;100525.21;5003152;58;1141205;-73
2021/12/23 11:10:35;;;;;;;91.93;35.40;;;;;;;-2.34;97.55;100511.14;5037535;57;1141161;-72
2021/12/23 11:35:43;;;;;;;65.97;27.87;;;;;;;-2.05;95.69;100472.82;4966160;57;1139231;-73
2021/12/23 11:37:46;;;;;;;71.57;27.47;;;;;;;-1.90;95.69;100452.97;4960567;58;1139563;-72
2021/12/23 11:43:12;;;;;;;64.53;25.10;;;;;;;-1.65;94.82;100438.41;4979177;57;1138970;-72
2021/12/23 11:47:57;;;;;;;76.53;31.87;;;;;;;-1.49;95.42;100425.84;4972401;57;1138979;-72
2021/12/23 11:53:03;;;;;;;59.00;25.43;;;;;;;-1.11;96.09;100420.80;4966196;58;1139267;-72
2021/12/23 11:58:11;;;;;;;68.10;29.57;;;;;;;-0.61;96.32;100401.44;4965989;58;1139058;-72
2021/12/23 12:03:17;;;;;;;81.63;32.63;;;;;;;-0.26;94.58;100393.25;4933053;60;1137317;-72
2021/12/23 12:08:25;;;;;;;60.03;25.33;;;;;;;0.12;94.32;100394.94;4985942;58;21160;-72
2021/12/23 12:13:34;;;;;;;100.90;45.47;;;;;;;0.21;92.80;100390.68;4962428;59;1134906;-72
2021/12/23 12:18:47;;;;;;;48.28;20.62;;;;;;;0.06;90.24;100376.95;5021212;58;1141051;-72
2021/12/23 12:24:11;;;;;;;52.40;27.07;;;;;;;0.01;88.41;100370.61;5142828;56;1139065;-72
2021/12/23 12:29:21;;;;;;;60.83;26.40;;;;;;;0.27;88.95;100357.50;5129691;56;1139120;-72
2021/12/23 12:34:36;;;;;;;54.53;23.23;;;;;;;0.41;89.24;100353.52;5142392;56;1139275;-73
2021/12/23 12:39:46;;;;;;;54.63;22.40;;;;;;;0.06;86.31;100340.55;5142099;56;1139194;-73
2021/12/23 12:45:02;;;;;;;404.33;127.87;;;;;;;-0.36;87.25;100332.13;5108957;56;1139053;-72
2021/12/23 12:50:16;;;;;;;89.87;43.00;;;;;;;-0.59;88.92;100319.09;5140683;56;1145291;-72
2021/12/23 12:55:26;;;;;;;71.92;31.10;;;;;;;-0.78;88.79;100312.41;5142339;56;1141128;-72
2021/12/23 13:00:42;;;;;;;76.87;32.77;;;;;;;-0.90;89.33;100294.63;5138728;56;1141151;-73
2021/12/23 13:05:53;;;;;;;210.00;66.00;;;;;;;-0.99;89.49;100296.26;5142561;56;1141198;-73
2021/12/23 13:11:17;;;;;;;120.50;42.60;;;;;;;-1.08;89.46;100299.58;5098628;57;1143539;-72
2021/12/23 13:16:38;;;;;;;114.93;49.13;;;;;;;-1.17;90.26;100288.19;5077198;57;1143094;-72
2021/12/23 13:21:47;;;;;;;72.67;29.10;;;;;;;-1.19;90.70;100266.63;5105926;57;1143400;-71
2021/12/23 13:26:56;;;;;;;97.87;47.53;;;;;;;-1.22;90.74;100267.20;5142220;56;1141091;-73
2021/12/23 13:32:03;;;;;;;68.63;28.57;;;;;;;-1.27;90.62;100259.56;5141263;56;1141036;-72
2021/12/23 13:37:09;;;;;;;70.87;29.33;;;;;;;-1.30;90.98;100244.55;5122163;57;1139031;-72
2021/12/23 13:42:15;;;;;;;69.57;28.57;;;;;;;-1.33;90.96;100225.19;5142216;56;1138991;-72
2021/12/23 13:47:26;;;;;;;57.30;22.27;;;;;;;-1.38;90.60;100222.77;5142122;56;1139049;-72
2021/12/23 13:52:43;;;;;;;68.60;28.40;;;;;;;-1.44;90.82;100212.59;5142034;56;1138984;-73
2021/12/23 13:57:51;;;;;;;;;;;;;;;-1.50;91.45;100200.66;5140956;56;1139236;-73
2021/12/23 14:03:12;;;;;;;70.47;26.43;;;;;;;-1.51;91.52;100183.41;5133909;56;972193;-73
2021/12/23 14:08:18;;;;;;;93.45;32.25;;;;;;;-1.48;91.37;100183.75;5172963;56;1136626;-73
2021/12/23 14:13:24;;;;;;;110.35;36.15;;;;;;;-1.49;91.98;100176.42;5121719;57;1139211;-72
2021/12/23 14:23:47;;;;;;;104.60;40.47;;;;;;;-1.47;91.74;100147.84;4958038;58;1139125;-72
2021/12/23 14:29:06;;;;;;;79.40;29.67;;;;;;;-1.50;91.58;100130.64;4933955;59;1240438;-72
2021/12/23 14:34:27;;;;;;;102.83;35.63;;;;;;;-1.52;91.30;100113.44;4884419;59;1141131;-72
2021/12/23 14:39:41;;;;;;;65.77;28.43;;;;;;;-1.49;92.11;100108.15;4834270;60;1142759;-72
2021/12/23 14:44:50;;;;;;;59.83;25.67;;;;;;;-1.50;92.15;100074.89;4826130;61;1140581;-71
2021/12/23 14:50:12;;;;;;;90.70;39.07;;;;;;;-1.50;92.15;100074.89;4896561;59;1141012;-72
2021/12/23 14:55:19;;;;;;;86.47;30.87;;;;;;;-1.42;92.61;100079.81;4955029;57;1141137;-72
2021/12/23 15:00:43;;;;;;;116.63;47.50;;;;;;;-1.44;92.26;100063.46;5132690;56;1140999;-72
2021/12/23 15:05:53;;;;;;;59.35;25.17;;;;;;;-1.50;92.25;100062.37;5035975;57;1143089;-73
2021/12/23 15:11:11;;;;;;;57.83;23.70;;;;;;;-1.56;92.40;100047.89;4955376;59;1141075;-72
2021/12/23 15:16:28;;;;;;;204.20;55.57;;;;;;;-1.57;92.41;100052.69;5054801;57;1141123;-72
2021/12/23 15:21:36;;;;;;;77.70;32.53;;;;;;;-1.64;92.73;100040.83;5114420;56;1143367;-71
2021/12/23 15:26:56;;;;;;;57.80;25.85;;;;;;;-1.63;93.00;100033.89;5058135;58;1141149;-72
2021/12/23 15:32:10;;;;;;;76.10;30.12;;;;;;;-1.64;93.12;100036.09;5130807;57;1141073;-72
2021/12/23 15:37:15;;;;;;;101.83;40.03;;;;;;;-1.71;93.25;100024.26;5058222;58;1141323;-72
2021/12/23 15:42:24;;;;;;;75.07;34.17;;;;;;;-1.74;93.52;100008.81;4969617;58;1143270;-72
2021/12/23 15:47:30;;;;;;;62.50;26.80;;;;;;;-1.77;93.79;100004.13;4966080;59;1138980;-72
2021/12/23 15:52:36;;;;;;;84.40;34.77;;;;;;;-1.79;94.02;99985.63;4990026;57;1138922;-72
2021/12/23 15:57:42;;;;;;;70.40;30.80;;;;;;;-1.75;94.38;99992.41;4961680;59;1136938;-72
2021/12/23 16:02:51;;;;;;;88.93;42.13;;;;;;;-1.76;94.38;99993.30;4962785;58;1137260;-72
2021/12/23 16:07:57;;;;;;;137.45;65.70;;;;;;;-1.75;94.61;99985.08;4994178;57;1136956;-72
2021/12/23 16:13:03;;;;;;;139.83;55.87;;;;;;;-1.77;94.79;99979.50;5024455;57;1139037;-71
2021/12/23 16:18:09;;;;;;;168.33;59.03;;;;;;;-1.74;94.92;99980.30;5074412;57;1139336;-72
2021/12/23 16:23:15;;;;;;;122.13;47.70;;;;;;;-1.77;95.07;99970.87;4971802;58;1139002;-72
2021/12/23 16:28:24;;;;;;;97.50;31.37;;;;;;;-1.78;95.39;99963.55;4902898;59;1139075;-72
2021/12/23 16:33:29;;;;;;;74.67;27.03;;;;;;;-1.81;95.56;99949.84;5020118;57;1136969;-71
2021/12/23 16:38:35;;;;;;;157.13;56.90;;;;;;;-1.82;95.73;99949.00;4991998;57;1137165;-71
2021/12/23 16:43:41;;;;;;;83.63;30.60;;;;;;;-1.79;95.84;99928.61;5044890;57;1139122;-71
2021/12/23 16:48:47;;;;;;;96.73;39.43;;;;;;;-1.74;95.95;99925.41;4985452;58;1137015;-72
2021/12/23 16:53:55;;;;;;;109.57;42.40;;;;;;;-1.70;96.21;99892.00;5059552;57;1136902;-72
2021/12/23 16:59:01;;;;;;;221.00;79.50;;;;;;;-1.70;96.21;99892.00;5011654;59;1139250;-71
2021/12/23 17:04:06;;;;;;;75.53;33.33;;;;;;;-1.67;95.96;99888.42;5085090;57;1139037;-73
2021/12/23 17:09:12;;;;;;;63.58;27.00;;;;;;;-1.65;96.09;99868.02;5026347;57;1137207;-73
2021/12/23 17:14:19;;;;;;;148.93;46.77;;;;;;;-1.60;96.27;99854.44;4943495;59;1134236;-72
2021/12/23 17:19:30;;;;;;;99.13;36.90;;;;;;;-1.59;96.13;99847.06;4989824;58;1137067;-73
2021/12/23 17:24:33;;;;;;;188.73;62.93;;;;;;;-1.56;96.04;99838.32;5120256;57;1139191;-73
2021/12/23 17:29:39;;;;;;;75.37;33.83;;;;;;;-1.56;96.00;99827.50;5126489;56;1143043;-73
2021/12/23 17:34:46;;;;;;;92.03;33.83;;;;;;;-1.57;96.00;99826.26;5143016;56;1138887;-73
2021/12/23 17:39:51;;;;;;;90.43;36.53;;;;;;;-1.57;96.01;99806.36;5142898;56;1138935;-73
2021/12/23 17:44:58;;;;;;;81.80;34.53;;;;;;;-1.52;95.98;99786.71;5135218;57;1139287;-73
2021/12/23 17:50:05;;;;;;;83.10;33.17;;;;;;;-1.52;95.98;99786.71;5110663;57;1138786;-73
2021/12/23 17:55:11;;;;;;;85.37;34.13;;;;;;;-1.50;96.06;99777.97;5110482;57;1139067;-73
2021/12/23 18:00:17;;;;;;;62.97;27.00;;;;;;;-1.48;95.97;99766.24;5110478;57;1139215;-73
2021/12/23 18:05:36;;;;;;;64.23;28.83;;;;;;;-1.48;95.72;99754.12;5118085;57;1138924;-73
2021/12/23 18:10:44;;;;;;;67.30;29.37;;;;;;;-1.48;95.81;99738.56;5083831;57;1138925;-73
2021/12/23 18:15:52;;;;;;;60.53;26.80;;;;;;;-1.47;96.23;99724.69;5030728;56;1139021;-72
2021/12/23 18:20:58;;;;;;;72.30;29.90;;;;;;;-1.50;96.94;99716.19;5025635;57;1138933;-73
2021/12/23 18:26:04;;;;;;;122.13;42.87;;;;;;;-1.52;97.86;99703.73;5000728;57;1139135;-73
2021/12/23 18:31:10;;;;;;;66.65;26.12;;;;;;;-1.59;98.13;99687.61;4991272;57;1141053;-73
2021/12/23 18:36:22;;;;;;;101.00;41.20;;;;;;;-1.62;99.90;99669.58;4975465;58;1139263;-72
2021/12/23 18:41:31;;;;;;;69.75;29.25;;;;;;;-1.62;99.34;99653.18;5002084;57;1141099;-73
2021/12/23 18:46:32;;;;;;;146.43;52.63;;;;;;;-1.63;100.00;99635.48;5007701;58;1138992;-72
2021/12/23 18:51:38;;;;;;;94.13;40.20;;;;;;;-1.69;100.00;99621.96;5018277;56;1143178;-72
2021/12/23 18:56:44;;;;;;;89.50;36.93;;;;;;;-1.80;100.00;99595.17;5006569;56;1141119;-72
2021/12/23 19:01:57;;;;;;;96.33;40.20;;;;;;;-1.73;100.00;99598.36;5021512;57;1141031;-73
2021/12/23 19:06:58;;;;;;;47.67;19.30;;;;;;;-1.71;100.00;99592.66;5029315;57;1141216;-71
2021/12/23 19:12:05;;;;;;;55.70;25.10;;;;;;;-1.70;100.00;99587.42;5044511;58;1141201;-72
2021/12/23 19:17:11;;;;;;;61.87;28.80;;;;;;;-1.73;100.00;99563.37;4978463;57;1141221;-72
2021/12/23 19:22:17;;;;;;;69.50;31.13;;;;;;;-1.72;100.00;99559.87;4978551;57;1141106;-73
2021/12/23 19:27:23;;;;;;;63.07;27.33;;;;;;;-1.73;100.00;99560.33;4966032;59;1141216;-74
2021/12/23 19:32:29;;;;;;;60.97;23.00;;;;;;;-1.73;100.00;99564.21;5016144;59;1141163;-76
2021/12/23 19:37:34;;;;;;;74.50;33.50;;;;;;;-1.74;100.00;99552.61;4965735;58;1141128;-73
2021/12/23 19:42:40;;;;;;;80.10;35.07;;;;;;;-1.73;100.00;99545.23;4965795;59;1141301;-75
2021/12/23 19:47:47;;;;;;;47.17;18.80;;;;;;;-1.71;100.00;99533.05;4955490;58;1141229;-73
2021/12/23 19:52:55;;;;;;;124.73;55.90;;;;;;;-1.69;100.00;99528.64;5011260;58;1141128;-75
2021/12/23 19:58:01;;;;;;;74.03;34.23;;;;;;;-1.70;100.00;99518.73;5143042;57;1143235;-73
2021/12/23 20:03:11;;;;;;;92.70;43.00;;;;;;;-1.66;100.00;99502.56;5119599;57;1141111;-75
2021/12/23 20:08:17;;;;;;;91.77;39.30;;;;;;;-1.63;100.00;99490.31;5046575;57;1141065;-74
2021/12/23 20:13:23;;;;;;;106.27;42.13;;;;;;;-1.63;100.00;99481.24;5012502;59;1141422;-74
2021/12/23 20:18:29;;;;;;;68.27;33.27;;;;;;;-1.64;100.00;99455.38;5046615;57;1141337;-74
2021/12/23 20:23:35;;;;;;;91.13;29.20;;;;;;;-1.62;100.00;99441.45;5012516;59;1139330;-74
2021/12/23 20:28:41;;;;;;;86.07;35.93;;;;;;;-1.62;100.00;99441.45;5046486;57;1139373;-75
2021/12/23 20:33:47;;;;;;;86.50;33.37;;;;;;;-1.59;100.00;99437.88;5046536;57;1139227;-73
2021/12/23 20:38:53;;;;;;;67.17;32.67;;;;;;;-1.58;100.00;99427.90;5012399;59;1139052;-73
2021/12/23 20:43:59;;;;;;;86.90;35.90;;;;;;;-1.60;100.00;99408.98;5002040;58;1139482;-75
2021/12/23 20:49:05;;;;;;;157.10;45.90;;;;;;;-1.59;100.00;99391.22;5055098;57;1139089;-75
2021/12/23 20:54:15;;;;;;;75.47;24.73;;;;;;;-1.58;100.00;99384.67;5000016;59;1141158;-73
2021/12/23 20:59:20;;;;;;;90.90;32.37;;;;;;;-1.54;100.00;99373.70;5034787;57;1139272;-73
2021/12/23 21:04:29;;;;;;;64.00;30.40;;;;;;;-1.52;100.00;99363.63;5007744;57;1139333;-74
2021/12/23 21:09:34;;;;;;;73.73;33.87;;;;;;;-1.51;100.00;99349.75;4993180;57;1139077;-72
2021/12/23 21:14:41;;;;;;;63.37;30.73;;;;;;;-1.52;100.00;99338.16;4933959;58;1138995;-72
2021/12/23 21:19:47;;;;;;;121.07;39.27;;;;;;;-1.53;100.00;99326.13;4987263;57;1138555;-73
2021/12/23 21:24:52;;;;;;;73.90;27.23;;;;;;;-1.53;100.00;99309.28;5000256;57;1141098;-71
2021/12/23 21:29:58;;;;;;;95.87;35.27;;;;;;;-1.52;100.00;99300.10;4965640;58;1139020;-71
2021/12/23 21:35:06;;;;;;;84.77;37.33;;;;;;;-1.53;100.00;99286.75;4948659;58;1139117;-71
2021/12/23 21:40:14;;;;;;;44.43;21.67;;;;;;;-1.51;100.00;99285.39;4959490;58;1137081;-70
2021/12/23 21:45:19;;;;;;;78.67;33.90;;;;;;;-1.50;100.00;99271.06;4967628;57;1137197;-70
2021/12/23 21:50:26;;;;;;;77.47;31.23;;;;;;;-1.49;100.00;99263.66;4980092;59;1141340;-72
2021/12/23 21:55:38;;;;;;;79.97;31.23;;;;;;;-1.48;100.00;99256.27;5014360;59;1141094;-75
2021/12/23 22:00:44;;;;;;;80.07;36.53;;;;;;;-1.48;100.00;99242.47;5014068;58;1141365;-74
2021/12/23 22:05:50;;;;;;;53.90;25.37;;;;;;;-1.46;100.00;99222.49;4935051;60;1141169;-74
2021/12/23 22:10:56;;;;;;;56.87;27.40;;;;;;;-1.46;100.00;99219.90;5014237;59;1141107;-75
2021/12/23 22:16:05;;;;;;;53.50;24.40;;;;;;;-1.44;100.00;99217.62;5004696;58;1141058;-75
2021/12/23 22:21:12;;;;;;;53.40;24.90;;;;;;;-1.46;100.00;99210.37;5007621;57;1141044;-79
2021/12/23 22:26:19;;;;;;;66.60;32.17;;;;;;;-1.48;100.00;99199.23;5006921;58;1141360;-78
2021/12/23 22:31:25;;;;;;;62.80;29.27;;;;;;;-1.44;100.00;99202.06;5001470;57;1140525;-75
2021/12/23 22:36:31;;;;;;;71.77;33.40;;;;;;;-1.39;100.00;99203.14;4975213;58;1141085;-73
2021/12/23 22:41:37;;;;;;;67.07;30.77;;;;;;;-1.38;100.00;99166.38;4936975;58;1141133;-77
2021/12/23 22:46:43;;;;;;;74.23;33.87;;;;;;;-1.38;100.00;99172.86;5037736;57;1141113;-75
2021/12/23 22:51:49;;;;;;;65.75;31.25;;;;;;;-1.38;100.00;99150.81;5012098;59;1141385;-79
2021/12/23 22:56:55;;;;;;;69.43;33.90;;;;;;;-1.36;100.00;99145.06;5136597;57;1141332;-80
2021/12/23 23:02:02;;;;;;;66.77;32.57;;;;;;;-1.34;100.00;99136.76;5062510;58;1141380;-75
2021/12/23 23:07:08;;;;;;;68.23;31.60;;;;;;;-1.35;100.00;99123.41;5062637;58;1141035;-76
2021/12/23 23:12:15;;;;;;;56.57;27.47;;;;;;;-1.29;100.00;99110.97;4980339;58;1141331;-74
2021/12/23 23:17:21;;;;;;;70.47;33.47;;;;;;;-1.31;100.00;99092.52;5051825;58;1141152;-74
2021/12/23 23:22:30;;;;;;;66.50;29.70;;;;;;;-1.26;100.00;99101.75;5048598;57;1141353;-76
2021/12/23 23:27:44;;;;;;;67.27;30.43;;;;;;;-1.29;100.00;99069.48;5049244;57;1141170;-74
2021/12/23 23:43:26;;;;;;;39.13;16.93;;;;;;;-1.20;100.00;99062.50;4951207;59;1140721;-78
2021/12/23 23:48:30;;;;;;;51.27;22.40;;;;;;;-1.18;100.00;99050.75;5025129;58;1141243;-76
2021/12/23 23:53:37;;;;;;;63.77;28.97;;;;;;;-1.17;100.00;99039.45;5027410;58;1141326;-72